EWG84GX LEBL-EDDS
Flight info
| Callsign | EWG84GX |
|---|---|
| Flight time | 1h 31m |
| Altitude | 30000 |
| Route | DALIN DCT PIVUS DCT DIBER DCT ADITA DCT MAXIR/N0446F340 DCT LUSOL DCT BODRU DCT OKTET DCT IRMAR DCT KINES DCT VANAS DCT MOBLO DCT LAMUR DCT KORED DCT BERSU N871 DITON T163 ZUE T125 ROMIR/N0399F220 T125 REUTL REUTL1W |
| Aircraft | A320/M-SDE3FGHIRWY/LB1 |
Departure
| Time | 2026-05-04 15:29 |
|---|---|
| Airport | Josep Tarradellas Barcelona-El Prat Airport (LEBL) |
Arrival
| Time | 2026-05-04 17:00 |
|---|---|
| Airport | Stuttgart Airport (EDDS) |
| Time | Latitude | Longitude | Altitude | Speed | Heading |
|---|---|---|---|---|---|
| 2026-05-04 14:29 | 41.29130 | 2.07904 | 18 ft | 0 kts | 155° |
| 2026-05-04 15:11 | 41.29145 | 2.07894 | 18 ft | 4 kts | 151° |
| 2026-05-04 15:12 | 41.29169 | 2.07878 | 21 ft | 4 kts | 150° |
| 2026-05-04 15:12 | 41.29190 | 2.07857 | 21 ft | 4 kts | 127° |
| 2026-05-04 15:12 | 41.29199 | 2.07829 | 18 ft | 4 kts | 73° |
| 2026-05-04 15:12 | 41.29197 | 2.07822 | 18 ft | 0 kts | 65° |
| 2026-05-04 15:16 | 41.29202 | 2.07834 | 19 ft | 5 kts | 65° |
| 2026-05-04 15:17 | 41.29230 | 2.07918 | 18 ft | 14 kts | 65° |
| 2026-05-04 15:17 | 41.29303 | 2.08129 | 18 ft | 10 kts | 65° |
| 2026-05-04 15:17 | 41.29330 | 2.08209 | 18 ft | 9 kts | 65° |
| 2026-05-04 15:18 | 41.29357 | 2.08289 | 19 ft | 13 kts | 65° |
| 2026-05-04 15:18 | 41.29359 | 2.08374 | 20 ft | 8 kts | 138° |
| 2026-05-04 15:18 | 41.29315 | 2.08408 | 18 ft | 6 kts | 151° |
| 2026-05-04 15:19 | 41.29241 | 2.08459 | 18 ft | 12 kts | 154° |
| 2026-05-04 15:19 | 41.29161 | 2.08503 | 20 ft | 12 kts | 156° |
| 2026-05-04 15:19 | 41.29108 | 2.08535 | 16 ft | 0 kts | 155° |
| 2026-05-04 15:20 | 41.29098 | 2.08541 | 16 ft | 8 kts | 155° |
| 2026-05-04 15:20 | 41.29016 | 2.08591 | 16 ft | 12 kts | 155° |
| 2026-05-04 15:21 | 41.28956 | 2.08627 | 18 ft | 8 kts | 155° |
| 2026-05-04 15:21 | 41.28897 | 2.08662 | 18 ft | 14 kts | 156° |
| 2026-05-04 15:21 | 41.28915 | 2.08883 | 18 ft | 17 kts | 65° |
| 2026-05-04 15:22 | 41.28962 | 2.09021 | 18 ft | 16 kts | 66° |
| 2026-05-04 15:22 | 41.29013 | 2.09173 | 18 ft | 18 kts | 66° |
| 2026-05-04 15:22 | 41.29111 | 2.09454 | 19 ft | 22 kts | 64° |
| 2026-05-04 15:23 | 41.29181 | 2.09660 | 20 ft | 25 kts | 64° |
| 2026-05-04 15:23 | 41.29256 | 2.09872 | 19 ft | 23 kts | 67° |
| 2026-05-04 15:23 | 41.29289 | 2.09992 | 18 ft | 0 kts | 90° |
| 2026-05-04 15:23 | 41.29286 | 2.10000 | 18 ft | 4 kts | 112° |
| 2026-05-04 15:24 | 41.29268 | 2.10055 | 18 ft | 0 kts | 114° |
| 2026-05-04 15:24 | 41.29241 | 2.10133 | 18 ft | 9 kts | 113° |
| 2026-05-04 15:25 | 41.29219 | 2.10215 | 16 ft | 9 kts | 109° |
| 2026-05-04 15:25 | 41.29197 | 2.10245 | 14 ft | 4 kts | 183° |
| 2026-05-04 15:25 | 41.29187 | 2.10224 | 14 ft | 5 kts | 249° |
| 2026-05-04 15:26 | 41.29178 | 2.10198 | 14 ft | 0 kts | 245° |
| 2026-05-04 15:28 | 41.29175 | 2.10188 | 14 ft | 8 kts | 245° |
| 2026-05-04 15:28 | 41.28664 | 2.08705 | 88 ft | 155 kts | 245° |
| 2026-05-04 15:29 | 41.28166 | 2.07454 | 1053 ft | 154 kts | 230° |
| 2026-05-04 15:30 | 41.23221 | 2.06218 | 4868 ft | 219 kts | 184° |
| 2026-05-04 15:30 | 41.18590 | 2.05795 | 5966 ft | 222 kts | 187° |
| 2026-05-04 15:31 | 41.15468 | 2.05546 | 5997 ft | 232 kts | 185° |
| 2026-05-04 15:31 | 41.13837 | 2.05470 | 6096 ft | 239 kts | 184° |
| 2026-05-04 15:32 | 41.08781 | 2.05256 | 8615 ft | 243 kts | 185° |
| 2026-05-04 15:32 | 41.05984 | 2.05132 | 8901 ft | 242 kts | 185° |
| 2026-05-04 15:33 | 41.02624 | 2.04984 | 8925 ft | 241 kts | 184° |
| 2026-05-04 15:34 | 40.98475 | 2.08796 | 8922 ft | 291 kts | 115° |
| 2026-05-04 15:34 | 40.97800 | 2.11344 | 8917 ft | 295 kts | 113° |
| 2026-05-04 15:34 | 40.96475 | 2.16494 | 8920 ft | 296 kts | 113° |
| 2026-05-04 15:35 | 40.95173 | 2.21664 | 8915 ft | 298 kts | 108° |
| 2026-05-04 15:35 | 40.94905 | 2.24396 | 8924 ft | 304 kts | 93° |
| 2026-05-04 15:35 | 40.95163 | 2.27243 | 9633 ft | 318 kts | 78° |
| 2026-05-04 15:36 | 40.97225 | 2.32606 | 11217 ft | 354 kts | 48° |
| 2026-05-04 15:36 | 40.99004 | 2.35013 | 11715 ft | 376 kts | 45° |
| 2026-05-04 15:36 | 41.00883 | 2.37492 | 12531 ft | 385 kts | 45° |
| 2026-05-04 15:37 | 41.02798 | 2.40014 | 13420 ft | 392 kts | 44° |
| 2026-05-04 15:37 | 41.04745 | 2.42591 | 14251 ft | 398 kts | 45° |
| 2026-05-04 15:37 | 41.06715 | 2.45209 | 15058 ft | 404 kts | 44° |
| 2026-05-04 15:37 | 41.08714 | 2.47877 | 15868 ft | 409 kts | 45° |
| 2026-05-04 15:38 | 41.10729 | 2.50578 | 16686 ft | 414 kts | 45° |
| 2026-05-04 15:38 | 41.12742 | 2.53279 | 17468 ft | 419 kts | 45° |
| 2026-05-04 15:38 | 41.14803 | 2.56048 | 18261 ft | 425 kts | 45° |
| 2026-05-04 15:38 | 41.16889 | 2.58857 | 18765 ft | 428 kts | 45° |
| 2026-05-04 15:39 | 41.18991 | 2.61691 | 19393 ft | 434 kts | 45° |
| 2026-05-04 15:39 | 41.21123 | 2.64562 | 20087 ft | 439 kts | 44° |
| 2026-05-04 15:39 | 41.25466 | 2.70411 | 21408 ft | 450 kts | 44° |
| 2026-05-04 15:40 | 41.27675 | 2.73392 | 22043 ft | 455 kts | 44° |
| 2026-05-04 15:40 | 41.29909 | 2.76408 | 22652 ft | 460 kts | 44° |
| 2026-05-04 15:40 | 41.32167 | 2.79459 | 23269 ft | 465 kts | 44° |
| 2026-05-04 15:40 | 41.34446 | 2.82548 | 23807 ft | 470 kts | 45° |
| 2026-05-04 15:41 | 41.36745 | 2.85666 | 24294 ft | 474 kts | 45° |
| 2026-05-04 15:41 | 41.39062 | 2.88810 | 24776 ft | 477 kts | 45° |
| 2026-05-04 15:41 | 41.41397 | 2.91982 | 25244 ft | 481 kts | 45° |
| 2026-05-04 15:41 | 41.43748 | 2.95176 | 25702 ft | 485 kts | 45° |
| 2026-05-04 15:42 | 41.46119 | 2.98401 | 26158 ft | 488 kts | 45° |
| 2026-05-04 15:42 | 41.48505 | 3.01651 | 26608 ft | 492 kts | 45° |
| 2026-05-04 15:42 | 41.50909 | 3.04926 | 27045 ft | 495 kts | 45° |
| 2026-05-04 15:42 | 41.53295 | 3.08181 | 27476 ft | 498 kts | 45° |
| 2026-05-04 15:43 | 41.55724 | 3.11503 | 27939 ft | 500 kts | 45° |
| 2026-05-04 15:43 | 41.58157 | 3.14839 | 28358 ft | 503 kts | 46° |
| 2026-05-04 15:43 | 41.60603 | 3.18200 | 28740 ft | 506 kts | 46° |
| 2026-05-04 15:43 | 41.63062 | 3.21583 | 29106 ft | 509 kts | 46° |
| 2026-05-04 15:44 | 41.65537 | 3.24991 | 29455 ft | 512 kts | 46° |
| 2026-05-04 15:44 | 41.68021 | 3.28408 | 29822 ft | 513 kts | 46° |
| 2026-05-04 15:44 | 41.70504 | 3.31832 | 29921 ft | 509 kts | 47° |
| 2026-05-04 15:45 | 41.74570 | 3.39484 | 29920 ft | 501 kts | 65° |
| 2026-05-04 15:45 | 41.77418 | 3.47959 | 29922 ft | 500 kts | 69° |
| 2026-05-04 15:46 | 41.80234 | 3.56425 | 29924 ft | 500 kts | 69° |
| 2026-05-04 15:46 | 41.83068 | 3.64964 | 29921 ft | 500 kts | 69° |
| 2026-05-04 15:47 | 41.85866 | 3.73457 | 29918 ft | 499 kts | 69° |
| 2026-05-04 15:47 | 41.88675 | 3.81989 | 29888 ft | 500 kts | 68° |
| 2026-05-04 15:48 | 41.91464 | 3.90499 | 29902 ft | 499 kts | 69° |
| 2026-05-04 15:48 | 41.95648 | 4.03352 | 29917 ft | 499 kts | 69° |
| 2026-05-04 15:49 | 41.98414 | 4.11841 | 29914 ft | 498 kts | 69° |
| 2026-05-04 15:49 | 42.01193 | 4.20418 | 29895 ft | 497 kts | 69° |
| 2026-05-04 15:50 | 42.03930 | 4.28896 | 29906 ft | 497 kts | 69° |
| 2026-05-04 15:50 | 42.06753 | 4.37376 | 29913 ft | 498 kts | 63° |
| 2026-05-04 15:51 | 42.10860 | 4.44880 | 29914 ft | 500 kts | 45° |
| 2026-05-04 15:51 | 42.16028 | 4.51144 | 29927 ft | 500 kts | 41° |
| 2026-05-04 15:52 | 42.21224 | 4.57405 | 29903 ft | 499 kts | 42° |
| 2026-05-04 15:52 | 42.26361 | 4.63628 | 29927 ft | 497 kts | 41° |
| 2026-05-04 15:53 | 42.31502 | 4.69866 | 29954 ft | 496 kts | 42° |
| 2026-05-04 15:53 | 42.36638 | 4.76093 | 29961 ft | 495 kts | 42° |
| 2026-05-04 15:54 | 42.41766 | 4.82308 | 29956 ft | 495 kts | 42° |
| 2026-05-04 15:54 | 42.46848 | 4.88501 | 29954 ft | 494 kts | 42° |
| 2026-05-04 15:55 | 42.51944 | 4.94735 | 29966 ft | 494 kts | 42° |
| 2026-05-04 15:55 | 42.57051 | 5.00988 | 29933 ft | 494 kts | 42° |
| 2026-05-04 15:56 | 42.62150 | 5.07238 | 29944 ft | 494 kts | 42° |
| 2026-05-04 15:56 | 42.67237 | 5.13497 | 29949 ft | 494 kts | 42° |
| 2026-05-04 15:57 | 42.72326 | 5.19773 | 29953 ft | 493 kts | 42° |
| 2026-05-04 15:57 | 42.77405 | 5.26045 | 29951 ft | 493 kts | 42° |
| 2026-05-04 15:58 | 42.82476 | 5.32320 | 29955 ft | 493 kts | 42° |
| 2026-05-04 15:58 | 42.87548 | 5.38620 | 29946 ft | 493 kts | 41° |
| 2026-05-04 15:59 | 42.92606 | 5.44924 | 29973 ft | 493 kts | 42° |
| 2026-05-04 15:59 | 42.97631 | 5.51195 | 29975 ft | 492 kts | 42° |
| 2026-05-04 16:00 | 43.02688 | 5.57514 | 29979 ft | 492 kts | 42° |
| 2026-05-04 16:00 | 43.07741 | 5.63848 | 29980 ft | 492 kts | 42° |
| 2026-05-04 16:01 | 43.12799 | 5.70199 | 29987 ft | 494 kts | 42° |
| 2026-05-04 16:01 | 43.17858 | 5.76558 | 29988 ft | 494 kts | 42° |
| 2026-05-04 16:02 | 43.22957 | 5.83003 | 30254 ft | 504 kts | 42° |
| 2026-05-04 16:02 | 43.28124 | 5.89552 | 30967 ft | 507 kts | 42° |
| 2026-05-04 16:03 | 43.30721 | 5.92850 | 31270 ft | 510 kts | 42° |
| 2026-05-04 16:03 | 43.33334 | 5.96158 | 31609 ft | 512 kts | 40° |
| 2026-05-04 16:03 | 43.36114 | 5.99124 | 31975 ft | 511 kts | 31° |
| 2026-05-04 16:03 | 43.39188 | 6.01539 | 32366 ft | 508 kts | 22° |
| 2026-05-04 16:04 | 43.42457 | 6.03335 | 32769 ft | 503 kts | 13° |
| 2026-05-04 16:04 | 43.49245 | 6.05038 | 33600 ft | 491 kts | 358° |
| 2026-05-04 16:04 | 43.52657 | 6.05386 | 33907 ft | 491 kts | 358° |
| 2026-05-04 16:05 | 43.56066 | 6.05732 | 34041 ft | 491 kts | 358° |
| 2026-05-04 16:05 | 43.59480 | 6.06077 | 34156 ft | 492 kts | 358° |
| 2026-05-04 16:05 | 43.66283 | 6.06757 | 35002 ft | 488 kts | 358° |
| 2026-05-04 16:06 | 43.69664 | 6.07093 | 35427 ft | 487 kts | 358° |
| 2026-05-04 16:06 | 43.78605 | 6.09079 | 36029 ft | 498 kts | 14° |
| 2026-05-04 16:07 | 43.82816 | 6.11691 | 36046 ft | 502 kts | 22° |
| 2026-05-04 16:08 | 43.95322 | 6.20243 | 36044 ft | 500 kts | 21° |
| 2026-05-04 16:09 | 44.10928 | 6.30913 | 36060 ft | 499 kts | 22° |
| 2026-05-04 16:10 | 44.23328 | 6.39472 | 36071 ft | 499 kts | 22° |
| 2026-05-04 16:11 | 44.35773 | 6.48088 | 36060 ft | 497 kts | 22° |
| 2026-05-04 16:12 | 44.54315 | 6.61004 | 36108 ft | 494 kts | 22° |
| 2026-05-04 16:13 | 44.66618 | 6.69624 | 36128 ft | 494 kts | 22° |
| 2026-05-04 16:14 | 44.79071 | 6.77585 | 36127 ft | 486 kts | 9° |
| 2026-05-04 16:15 | 44.88925 | 6.78468 | 36142 ft | 470 kts | 351° |
| 2026-05-04 16:16 | 44.95447 | 6.78022 | 36137 ft | 470 kts | 351° |
| 2026-05-04 16:17 | 45.11727 | 6.76939 | 36148 ft | 470 kts | 352° |
| 2026-05-04 16:18 | 45.24763 | 6.76082 | 36140 ft | 468 kts | 352° |
| 2026-05-04 16:19 | 45.41008 | 6.75007 | 36126 ft | 468 kts | 352° |
| 2026-05-04 16:20 | 45.56173 | 6.73972 | 36115 ft | 466 kts | 352° |
| 2026-05-04 16:22 | 45.72325 | 6.72878 | 36076 ft | 466 kts | 352° |
| 2026-05-04 16:22 | 45.82084 | 6.73523 | 36076 ft | 477 kts | 10° |
| 2026-05-04 16:23 | 45.91364 | 6.79059 | 36065 ft | 483 kts | 21° |
| 2026-05-04 16:25 | 46.09679 | 6.91032 | 36059 ft | 483 kts | 21° |
| 2026-05-04 16:26 | 46.31084 | 7.05179 | 36059 ft | 483 kts | 22° |
| 2026-05-04 16:28 | 46.46317 | 7.15320 | 36047 ft | 483 kts | 22° |
| 2026-05-04 16:29 | 46.67681 | 7.29661 | 36057 ft | 483 kts | 22° |
| 2026-05-04 16:31 | 46.82836 | 7.40231 | 36064 ft | 484 kts | 31° |
| 2026-05-04 16:31 | 46.90031 | 7.50542 | 36039 ft | 486 kts | 51° |
| 2026-05-04 16:32 | 46.96314 | 7.62100 | 36036 ft | 485 kts | 51° |
| 2026-05-04 16:33 | 47.04710 | 7.77647 | 36014 ft | 485 kts | 52° |
| 2026-05-04 16:34 | 47.10941 | 7.89238 | 36020 ft | 485 kts | 52° |
| 2026-05-04 16:35 | 47.22028 | 8.14001 | 36015 ft | 483 kts | 59° |
| 2026-05-04 16:36 | 47.27356 | 8.26526 | 36003 ft | 483 kts | 59° |
| 2026-05-04 16:37 | 47.33301 | 8.38442 | 35995 ft | 482 kts | 49° |
| 2026-05-04 16:38 | 47.42196 | 8.53197 | 36023 ft | 480 kts | 49° |
| 2026-05-04 16:39 | 47.53240 | 8.71689 | 36012 ft | 479 kts | 49° |
| 2026-05-04 16:40 | 47.61447 | 8.87092 | 35977 ft | 478 kts | 59° |
| 2026-05-04 16:41 | 47.70155 | 9.08023 | 35974 ft | 477 kts | 59° |
| 2026-05-04 16:43 | 47.80501 | 9.26892 | 35965 ft | 476 kts | 29° |
| 2026-05-04 16:43 | 47.86636 | 9.30352 | 35869 ft | 472 kts | 8° |
| 2026-05-04 16:43 | 47.89848 | 9.30846 | 35617 ft | 469 kts | 0° |
| 2026-05-04 16:44 | 48.02930 | 9.31804 | 34635 ft | 471 kts | 0° |
| 2026-05-04 16:45 | 48.09496 | 9.32294 | 32991 ft | 476 kts | 0° |
| 2026-05-04 16:46 | 48.19562 | 9.33150 | 28973 ft | 489 kts | 2° |
| 2026-05-04 16:46 | 48.26319 | 9.34226 | 26641 ft | 482 kts | 5° |
| 2026-05-04 16:47 | 48.32876 | 9.35277 | 24863 ft | 465 kts | 358° |
| 2026-05-04 16:47 | 48.39062 | 9.33749 | 23090 ft | 447 kts | 337° |
| 2026-05-04 16:48 | 48.47005 | 9.27401 | 21928 ft | 423 kts | 327° |
| 2026-05-04 16:48 | 48.49553 | 9.25225 | 21631 ft | 423 kts | 327° |
| 2026-05-04 16:49 | 48.54570 | 9.20655 | 18616 ft | 417 kts | 316° |
| 2026-05-04 16:49 | 48.57603 | 9.14020 | 17488 ft | 361 kts | 287° |
| 2026-05-04 16:50 | 48.58115 | 9.06736 | 16255 ft | 349 kts | 259° |
| 2026-05-04 16:50 | 48.56844 | 8.99733 | 15018 ft | 345 kts | 252° |
| 2026-05-04 16:51 | 48.55500 | 8.92804 | 13736 ft | 345 kts | 252° |
| 2026-05-04 16:51 | 48.54831 | 8.89334 | 13016 ft | 344 kts | 252° |
| 2026-05-04 16:51 | 48.53511 | 8.82502 | 11679 ft | 339 kts | 252° |
| 2026-05-04 16:52 | 48.52193 | 8.75737 | 10566 ft | 328 kts | 251° |
| 2026-05-04 16:52 | 48.51566 | 8.72532 | 10443 ft | 310 kts | 251° |
| 2026-05-04 16:53 | 48.50993 | 8.66441 | 10067 ft | 293 kts | 283° |
| 2026-05-04 16:53 | 48.55923 | 8.62523 | 9580 ft | 297 kts | 19° |
| 2026-05-04 16:54 | 48.57604 | 8.64200 | 9126 ft | 289 kts | 53° |
| 2026-05-04 16:55 | 48.59951 | 8.75255 | 7515 ft | 270 kts | 76° |
| 2026-05-04 16:55 | 48.61003 | 8.80639 | 6754 ft | 263 kts | 75° |
| 2026-05-04 16:56 | 48.62027 | 8.85920 | 5904 ft | 260 kts | 75° |
| 2026-05-04 16:56 | 48.63500 | 8.93539 | 4889 ft | 244 kts | 73° |
| 2026-05-04 16:57 | 48.63972 | 8.95984 | 4561 ft | 240 kts | 73° |
| 2026-05-04 16:57 | 48.64887 | 9.00738 | 3928 ft | 231 kts | 73° |
| 2026-05-04 16:58 | 48.66186 | 9.07515 | 3052 ft | 211 kts | 72° |
| 2026-05-04 16:58 | 48.66587 | 9.09611 | 2801 ft | 203 kts | 72° |
| 2026-05-04 16:59 | 48.67325 | 9.13470 | 2239 ft | 179 kts | 73° |
| 2026-05-04 17:00 | 48.68463 | 9.19429 | 1484 ft | 133 kts | 71° |
| 2026-05-04 17:00 | 48.69096 | 9.22753 | 1289 ft | 46 kts | 73° |
| 2026-05-04 17:01 | 48.69270 | 9.23094 | 1287 ft | 0 kts | 45° |
| 2026-05-04 17:01 | 48.69273 | 9.23097 | 1287 ft | 1 kts | 45° |
| 2026-05-04 17:02 | 48.69321 | 9.23158 | 1289 ft | 12 kts | 17° |
| 2026-05-04 17:02 | 48.69388 | 9.22921 | 1287 ft | 20 kts | 255° |
| 2026-05-04 17:03 | 48.69347 | 9.22693 | 1287 ft | 24 kts | 254° |
| 2026-05-04 17:03 | 48.69298 | 9.22444 | 1286 ft | 26 kts | 253° |
| 2026-05-04 17:03 | 48.69196 | 9.21907 | 1287 ft | 29 kts | 254° |
| 2026-05-04 17:04 | 48.69105 | 9.21438 | 1291 ft | 21 kts | 254° |
| 2026-05-04 17:04 | 48.69014 | 9.20954 | 1288 ft | 22 kts | 254° |
| 2026-05-04 17:05 | 48.68920 | 9.20463 | 1287 ft | 23 kts | 254° |
| 2026-05-04 17:05 | 48.68825 | 9.20001 | 1288 ft | 16 kts | 239° |
| 2026-05-04 17:06 | 48.68889 | 9.19844 | 1286 ft | 11 kts | 279° |
| 2026-05-04 17:06 | 48.68869 | 9.19708 | 1287 ft | 15 kts | 253° |
| 2026-05-04 17:07 | 48.68841 | 9.19563 | 1287 ft | 8 kts | 254° |
| 2026-05-04 17:07 | 48.68829 | 9.19500 | 1288 ft | 10 kts | 253° |
| 2026-05-04 17:07 | 48.68855 | 9.19448 | 1287 ft | 6 kts | 342° |
| 2026-05-04 17:07 | 48.68893 | 9.19431 | 1289 ft | 1 kts | 342° |
| 2026-05-04 17:08 | 48.68899 | 9.19428 | 1288 ft | 0 kts | 343° |